createdAt,value
2023-05-11T00:02:16.773Z,20.50
2023-05-11T00:04:44.957Z,20.50
2023-05-11T00:07:12.942Z,20.49
2023-05-11T00:09:41.776Z,20.49
2023-05-11T00:12:09.719Z,20.48
2023-05-11T00:14:37.664Z,20.48
2023-05-11T00:17:06.062Z,20.48
2023-05-11T00:19:35.518Z,20.51
2023-05-11T00:22:03.690Z,20.53
2023-05-11T00:24:31.625Z,20.52
2023-05-11T00:26:59.593Z,20.53
2023-05-11T00:29:27.547Z,20.51
2023-05-11T00:31:55.627Z,20.51
2023-05-11T00:34:25.382Z,20.49
2023-05-11T00:36:54.675Z,20.49
2023-05-11T00:39:22.613Z,20.47
2023-05-11T00:41:50.487Z,20.48
2023-05-11T00:44:18.429Z,20.49
2023-05-11T00:46:46.381Z,20.47
2023-05-11T00:49:17.192Z,20.45
2023-05-11T00:51:45.135Z,20.45
2023-05-11T00:54:15.797Z,20.44
2023-05-11T00:56:43.698Z,20.45
2023-05-11T00:59:11.662Z,20.45
2023-05-11T01:01:39.736Z,20.46
2023-05-11T01:04:07.751Z,20.43
2023-05-11T01:06:42.601Z,20.43
2023-05-11T01:09:13.088Z,20.42
2023-05-11T01:11:44.435Z,20.41
2023-05-11T01:14:15.170Z,20.39
2023-05-11T01:16:43.529Z,20.40
2023-05-11T01:19:13.868Z,20.39
2023-05-11T01:21:41.768Z,20.39
2023-05-11T01:24:28.021Z,20.39
2023-05-11T01:27:13.666Z,20.40
2023-05-11T01:30:16.827Z,20.44
2023-05-11T01:32:46.354Z,20.48
2023-05-11T01:35:19.044Z,20.48
2023-05-11T01:37:49.080Z,20.49
2023-05-11T01:40:18.281Z,20.49
2023-05-11T01:42:47.228Z,20.45
2023-05-11T01:45:15.136Z,20.42
2023-05-11T01:47:43.413Z,20.39
2023-05-11T01:50:12.934Z,20.36
2023-05-11T01:52:40.959Z,20.36
2023-05-11T01:55:09.636Z,20.35
2023-05-11T01:57:38.171Z,20.35
2023-05-11T02:00:07.375Z,20.34
2023-05-11T02:02:35.352Z,20.33
2023-05-11T02:05:03.395Z,20.33
2023-05-11T02:07:32.831Z,20.33
2023-05-11T02:10:00.757Z,20.31
2023-05-11T02:12:28.707Z,20.30
2023-05-11T02:14:56.667Z,20.30
2023-05-11T02:17:24.638Z,20.29
2023-05-11T02:19:52.663Z,20.29
2023-05-11T02:22:20.611Z,20.28
2023-05-11T02:24:49.924Z,20.27
2023-05-11T02:27:17.895Z,20.27
2023-05-11T02:29:46.489Z,20.27
2023-05-11T02:32:16.956Z,20.27
2023-05-11T02:34:45.483Z,20.26
2023-05-11T02:37:15.361Z,20.28
2023-05-11T02:39:45.419Z,20.32
2023-05-11T02:42:16.187Z,20.30
2023-05-11T02:44:46.842Z,20.30
2023-05-11T02:47:15.051Z,20.30
2023-05-11T02:49:43.149Z,20.29
2023-05-11T02:52:11.115Z,20.32
2023-05-11T02:54:39.018Z,20.31
2023-05-11T02:57:09.656Z,20.37
2023-05-11T02:59:39.026Z,20.38
2023-05-11T03:02:12.698Z,20.37
2023-05-11T03:04:40.645Z,20.34
2023-05-11T03:07:08.519Z,20.33
2023-05-11T03:09:42.257Z,20.32
2023-05-11T03:12:10.198Z,20.31
2023-05-11T03:14:42.632Z,20.31
2023-05-11T03:17:10.581Z,20.31
2023-05-11T03:19:38.563Z,20.31
2023-05-11T03:22:06.734Z,20.31
2023-05-11T03:24:34.632Z,20.30
2023-05-11T03:27:03.741Z,20.30
2023-05-11T03:29:32.145Z,20.31
2023-05-11T03:32:01.490Z,20.31
2023-05-11T03:34:29.764Z,20.30
2023-05-11T03:36:57.719Z,20.27
2023-05-11T03:39:25.659Z,20.25
2023-05-11T03:41:53.575Z,20.24
2023-05-11T03:44:21.490Z,20.24
2023-05-11T03:46:50.495Z,20.26
2023-05-11T03:49:19.858Z,20.26
2023-05-11T03:51:47.820Z,20.26
2023-05-11T03:54:15.709Z,20.26
2023-05-11T03:56:43.615Z,20.25
2023-05-11T03:59:15.040Z,20.25
2023-05-11T04:01:43.375Z,20.24
2023-05-11T04:04:12.202Z,20.26
2023-05-11T04:06:41.682Z,20.27
2023-05-11T04:09:09.643Z,20.26
2023-05-11T04:11:38.117Z,20.26
2023-05-11T04:14:06.033Z,20.25
2023-05-11T04:16:34.010Z,20.23
2023-05-11T04:19:02.347Z,20.22
2023-05-11T04:21:30.704Z,20.21
2023-05-11T04:24:00.136Z,20.20
2023-05-11T04:26:28.053Z,20.19
2023-05-11T04:28:55.979Z,20.17
2023-05-11T04:31:23.972Z,20.17
2023-05-11T04:33:52.117Z,20.17
2023-05-11T04:36:22.294Z,20.14
2023-05-11T04:38:50.132Z,20.15
2023-05-11T04:41:22.474Z,20.14
2023-05-11T04:43:50.418Z,20.15
2023-05-11T04:46:18.845Z,20.14
2023-05-11T04:48:46.767Z,20.12
2023-05-11T04:51:14.615Z,20.12
2023-05-11T04:53:42.646Z,20.11
2023-05-11T04:56:10.800Z,20.14
2023-05-11T04:58:40.118Z,20.13
2023-05-11T05:01:08.121Z,20.16
2023-05-11T05:03:36.094Z,20.17
2023-05-11T05:06:03.988Z,20.17
2023-05-11T05:08:31.916Z,20.13
2023-05-11T05:10:59.852Z,20.12
2023-05-11T05:13:27.806Z,20.09
2023-05-11T05:15:57.097Z,20.06
2023-05-11T05:18:25.189Z,20.06
2023-05-11T05:20:53.122Z,20.06
2023-05-11T05:23:20.977Z,20.11
2023-05-11T05:25:52.058Z,20.13
2023-05-11T05:28:20.278Z,20.17
2023-05-11T05:30:48.204Z,20.17
2023-05-11T05:33:17.527Z,20.18
2023-05-11T05:35:46.824Z,20.19
2023-05-11T05:38:15.229Z,20.19
2023-05-11T05:40:43.208Z,20.19
2023-05-11T05:43:11.328Z,20.19
2023-05-11T05:45:39.259Z,20.22
2023-05-11T05:48:09.781Z,20.23
2023-05-11T05:50:39.282Z,20.26
2023-05-11T05:53:07.931Z,20.29
2023-05-11T05:55:35.987Z,20.27
2023-05-11T05:58:04.010Z,20.27
2023-05-11T06:00:31.984Z,20.26
2023-05-11T06:03:02.787Z,20.27
2023-05-11T06:05:30.881Z,20.32
2023-05-11T06:08:09.711Z,20.33
2023-05-11T06:10:39.146Z,20.35
2023-05-11T06:13:08.167Z,20.35
2023-05-11T06:15:36.217Z,20.38
2023-05-11T06:18:04.343Z,20.37
2023-05-11T06:20:32.935Z,20.39
2023-05-11T06:23:02.208Z,20.40
2023-05-11T06:25:30.148Z,20.40
2023-05-11T06:27:58.039Z,20.40
2023-05-11T06:30:26.004Z,20.47
2023-05-11T06:32:54.004Z,20.52
2023-05-11T06:35:22.674Z,20.52
2023-05-11T06:37:50.617Z,20.54
2023-05-11T06:40:20.226Z,20.52
2023-05-11T06:42:48.377Z,20.50
2023-05-11T06:45:16.583Z,20.50
2023-05-11T06:47:44.600Z,20.52
2023-05-11T06:50:12.673Z,20.52
2023-05-11T06:52:40.605Z,20.53
2023-05-11T06:55:09.431Z,20.52
2023-05-11T06:57:38.876Z,20.51
2023-05-11T07:00:08.284Z,20.52
2023-05-11T07:02:36.433Z,20.56
2023-05-11T07:05:04.720Z,20.55
2023-05-11T07:07:32.900Z,20.55
2023-05-11T07:10:01.061Z,20.55
2023-05-11T07:12:28.992Z,20.56
2023-05-11T07:14:58.372Z,20.55
2023-05-11T07:17:26.425Z,20.55
2023-05-11T07:19:57.217Z,20.57
2023-05-11T07:22:25.160Z,20.58
2023-05-11T07:24:53.171Z,20.58
2023-05-11T07:27:21.180Z,20.60
2023-05-11T07:29:49.112Z,20.58
2023-05-11T07:32:18.455Z,20.58
2023-05-11T07:34:46.368Z,20.60
2023-05-11T07:37:14.328Z,20.61
2023-05-11T07:39:42.268Z,20.59
2023-05-11T07:42:10.222Z,20.61
2023-05-11T07:44:38.178Z,20.61
2023-05-11T07:47:06.303Z,20.63
2023-05-11T07:49:43.468Z,20.62
2023-05-11T07:52:12.249Z,20.62
2023-05-11T07:54:40.962Z,20.61
2023-05-11T07:57:09.021Z,20.61
2023-05-11T07:59:37.267Z,20.60
2023-05-11T08:02:05.914Z,20.60
2023-05-11T08:04:36.216Z,20.60
2023-05-11T08:07:04.379Z,20.61
2023-05-11T08:09:32.360Z,20.60
2023-05-11T08:12:01.694Z,20.61
2023-05-11T08:14:29.710Z,20.62
2023-05-11T08:16:57.690Z,20.60
2023-05-11T08:19:25.661Z,20.61
2023-05-11T08:21:55.075Z,20.61
2023-05-11T08:24:22.992Z,20.59
2023-05-11T08:26:50.939Z,20.61
2023-05-11T08:29:18.893Z,20.62
2023-05-11T08:31:46.905Z,20.63
2023-05-11T08:34:19.576Z,20.64
2023-05-11T08:36:48.190Z,20.64
2023-05-11T08:39:28.575Z,20.67
2023-05-11T08:42:07.054Z,20.67
2023-05-11T08:44:37.789Z,20.68
2023-05-11T08:47:21.799Z,20.69
2023-05-11T08:49:53.209Z,20.69
2023-05-11T08:52:21.611Z,20.68
2023-05-11T08:54:51.095Z,20.67
2023-05-11T08:57:19.002Z,20.68
2023-05-11T08:59:47.072Z,20.68
2023-05-11T09:02:17.995Z,20.68
2023-05-11T09:04:48.225Z,20.69
2023-05-11T09:07:17.661Z,20.69
2023-05-11T09:09:46.301Z,20.67
2023-05-11T09:12:15.641Z,20.66
2023-05-11T09:14:43.854Z,20.66
2023-05-11T09:17:12.137Z,20.70
2023-05-11T09:19:44.775Z,20.71
2023-05-11T09:22:12.726Z,20.72
2023-05-11T09:24:43.647Z,20.72
2023-05-11T09:27:11.677Z,20.72
2023-05-11T09:29:41.053Z,20.72
2023-05-11T09:32:09.062Z,20.72
2023-05-11T09:34:43.105Z,20.72
2023-05-11T09:37:17.632Z,20.73
2023-05-11T09:40:13.996Z,20.75
2023-05-11T09:42:33.490Z,20.75
2023-05-11T09:45:02.817Z,20.78
2023-05-11T09:47:33.184Z,20.78
2023-05-11T09:50:01.374Z,20.82
2023-05-11T09:52:29.394Z,20.86
2023-05-11T09:54:57.354Z,20.88
2023-05-11T09:57:26.321Z,20.91
2023-05-11T09:59:54.483Z,20.93
2023-05-11T10:02:24.976Z,20.90
2023-05-11T10:04:54.297Z,20.92
2023-05-11T10:07:29.123Z,20.91
2023-05-11T10:09:57.938Z,20.92
2023-05-11T10:12:27.328Z,20.96
2023-05-11T10:14:56.784Z,20.98
2023-05-11T10:17:26.251Z,20.98
2023-05-11T10:19:55.772Z,21.00
2023-05-11T10:22:23.866Z,20.99
2023-05-11T10:24:51.875Z,20.99
2023-05-11T10:27:19.971Z,20.98
2023-05-11T10:29:48.117Z,21.01
2023-05-11T10:32:16.874Z,21.05
2023-05-11T10:34:46.594Z,21.07
2023-05-11T10:37:14.688Z,21.09
2023-05-11T10:39:42.720Z,21.12
2023-05-11T10:42:19.939Z,21.16
2023-05-11T10:45:01.519Z,21.20
2023-05-11T10:47:55.390Z,21.23
2023-05-11T10:50:53.328Z,21.27
2023-05-11T10:53:46.371Z,21.28
2023-05-11T10:56:27.905Z,21.22
2023-05-11T10:59:07.596Z,21.20
2023-05-11T11:01:39.532Z,21.21
2023-05-11T11:04:08.375Z,21.24
2023-05-11T11:06:38.886Z,21.24
2023-05-11T11:09:08.052Z,21.28
2023-05-11T11:11:39.099Z,21.30
2023-05-11T11:14:09.463Z,21.35
2023-05-11T11:16:37.679Z,21.40
2023-05-11T11:19:36.638Z,21.44
2023-05-11T11:22:06.344Z,21.45
2023-05-11T11:24:45.920Z,21.46
2023-05-11T11:27:13.853Z,21.46
2023-05-11T11:29:41.947Z,21.48
2023-05-11T11:32:28.735Z,21.54
2023-05-11T11:34:56.765Z,21.58
2023-05-11T11:37:26.068Z,21.61
2023-05-11T11:40:14.036Z,21.64
2023-05-11T11:42:44.254Z,21.65
2023-05-11T11:45:32.642Z,21.65
2023-05-11T11:48:11.388Z,21.65
2023-05-11T11:50:39.995Z,21.67
2023-05-11T11:53:12.894Z,21.70
2023-05-11T11:55:50.243Z,21.70
2023-05-11T11:58:55.778Z,21.74
2023-05-11T12:01:25.901Z,21.72
2023-05-11T12:04:42.044Z,21.73
2023-05-11T12:07:11.569Z,21.72
2023-05-11T12:09:43.829Z,21.70
2023-05-11T12:12:12.580Z,21.70
2023-05-11T12:14:42.041Z,21.73
2023-05-11T12:17:15.397Z,21.74
2023-05-11T12:19:46.611Z,21.76
2023-05-11T12:22:16.519Z,21.80
2023-05-11T12:24:45.879Z,21.85
2023-05-11T12:27:14.306Z,21.88
2023-05-11T12:29:42.526Z,21.88
2023-05-11T12:32:13.698Z,21.88
2023-05-11T12:34:41.895Z,21.88
2023-05-11T12:37:09.850Z,21.90
2023-05-11T12:39:37.778Z,21.90
2023-05-11T12:42:07.665Z,21.88
2023-05-11T12:44:35.660Z,21.88
2023-05-11T12:47:03.728Z,21.90
2023-05-11T12:49:31.664Z,21.93
2023-05-11T12:52:06.137Z,21.99
2023-05-11T12:54:34.698Z,22.07
2023-05-11T12:57:03.255Z,22.13
2023-05-11T12:59:34.389Z,22.19
2023-05-11T13:02:13.052Z,22.23
2023-05-11T13:04:42.514Z,22.23
2023-05-11T13:07:10.510Z,22.21
2023-05-11T13:09:38.514Z,22.20
2023-05-11T13:12:14.779Z,22.17
2023-05-11T13:14:44.377Z,22.17
2023-05-11T13:17:12.339Z,22.19
2023-05-11T13:19:40.821Z,22.24
2023-05-11T13:22:09.137Z,22.28
2023-05-11T13:24:37.296Z,22.35
2023-05-11T13:27:05.697Z,22.41
2023-05-11T13:29:34.058Z,22.45
2023-05-11T13:32:03.655Z,22.52
2023-05-11T13:34:31.655Z,22.55
2023-05-11T13:36:59.786Z,22.59
2023-05-11T13:39:27.745Z,22.60
2023-05-11T13:41:56.189Z,22.58
2023-05-11T13:44:24.261Z,22.58
2023-05-11T13:46:52.230Z,22.57
2023-05-11T13:49:21.793Z,22.55
2023-05-11T13:51:49.806Z,22.54
2023-05-11T13:54:17.732Z,22.55
2023-05-11T13:56:45.746Z,22.57
2023-05-11T13:59:13.767Z,22.56
2023-05-11T14:01:41.985Z,22.54
2023-05-11T14:04:09.984Z,22.52
2023-05-11T14:06:39.272Z,22.52
2023-05-11T14:09:07.221Z,22.55
2023-05-11T14:11:36.391Z,22.61
2023-05-11T14:14:06.096Z,22.63
2023-05-11T14:16:34.074Z,22.62
2023-05-11T14:19:02.088Z,22.58
2023-05-11T14:21:30.126Z,22.56
2023-05-11T14:24:10.853Z,22.60
2023-05-11T14:26:40.490Z,22.68
2023-05-11T14:29:08.515Z,22.71
2023-05-11T14:31:37.088Z,22.66
2023-05-11T14:34:05.259Z,22.70
2023-05-11T14:36:33.470Z,22.81
2023-05-11T14:39:02.794Z,22.83
2023-05-11T14:41:31.380Z,22.78
2023-05-11T14:43:59.325Z,22.70
2023-05-11T14:46:27.457Z,22.62
2023-05-11T14:48:55.481Z,22.60
2023-05-11T14:51:23.436Z,22.57
2023-05-11T14:53:51.858Z,22.60
2023-05-11T14:56:22.113Z,22.65
2023-05-11T14:58:50.215Z,22.68
2023-05-11T15:01:18.290Z,22.70
2023-05-11T15:03:46.384Z,22.65
2023-05-11T15:06:21.019Z,22.58
2023-05-11T15:08:49.247Z,22.51
2023-05-11T15:11:17.239Z,22.50
2023-05-11T15:13:48.432Z,22.46
2023-05-11T15:16:16.505Z,22.44
2023-05-11T15:18:44.575Z,22.47
2023-05-11T15:21:12.530Z,22.49
2023-05-11T15:23:40.823Z,22.44
2023-05-11T15:26:08.794Z,22.39
2023-05-11T15:28:36.723Z,22.34
2023-05-11T15:31:06.159Z,22.30
2023-05-11T15:33:34.307Z,22.31
2023-05-11T15:36:02.286Z,22.37
2023-05-11T15:38:30.411Z,22.41
2023-05-11T15:40:58.354Z,22.39
2023-05-11T15:43:26.312Z,22.40
2023-05-11T15:45:55.385Z,22.58
2023-05-11T15:48:24.730Z,22.67
2023-05-11T15:50:52.776Z,22.67
2023-05-11T15:53:20.755Z,22.70
2023-05-11T15:55:50.915Z,22.73
2023-05-11T15:58:19.008Z,22.84
2023-05-11T16:00:46.973Z,22.91
2023-05-11T16:03:15.072Z,22.90
2023-05-11T16:05:44.697Z,22.87
2023-05-11T16:08:12.699Z,22.83
2023-05-11T16:10:40.650Z,22.85
2023-05-11T16:13:09.145Z,22.82
2023-05-11T16:15:37.059Z,22.76
2023-05-11T16:18:05.597Z,22.75
2023-05-11T16:20:33.612Z,22.74
2023-05-11T16:23:03.007Z,22.74
2023-05-11T16:25:30.999Z,22.72
2023-05-11T16:27:58.937Z,22.71
2023-05-11T16:30:27.316Z,22.69
2023-05-11T16:32:55.492Z,22.67
2023-05-11T16:35:23.507Z,22.65
2023-05-11T16:37:51.462Z,22.64
2023-05-11T16:40:21.242Z,22.65
2023-05-11T16:42:49.552Z,22.67
2023-05-11T16:45:17.702Z,22.67
2023-05-11T16:47:46.332Z,22.65
2023-05-11T16:50:16.257Z,22.66
2023-05-11T16:52:44.715Z,22.63
2023-05-11T16:55:12.696Z,22.65
2023-05-11T16:57:42.041Z,22.66
2023-05-11T17:00:10.760Z,22.67
2023-05-11T17:02:38.752Z,22.71
2023-05-11T17:05:08.138Z,22.75
2023-05-11T17:07:36.159Z,22.73
2023-05-11T17:10:04.249Z,22.73
2023-05-11T17:12:35.724Z,22.74
2023-05-11T17:15:09.601Z,22.76
2023-05-11T17:17:38.288Z,22.85
2023-05-11T17:20:07.806Z,22.90
2023-05-11T17:22:35.850Z,22.93
2023-05-11T17:25:04.053Z,22.99
2023-05-11T17:27:32.130Z,23.03
2023-05-11T17:30:00.158Z,23.08
2023-05-11T17:32:29.700Z,23.14
2023-05-11T17:34:57.827Z,23.15
2023-05-11T17:37:31.834Z,23.14
2023-05-11T17:40:01.170Z,23.12
2023-05-11T17:42:29.453Z,23.02
2023-05-11T17:44:57.456Z,22.95
2023-05-11T17:47:26.153Z,22.90
2023-05-11T17:49:55.837Z,22.85
2023-05-11T17:52:24.586Z,22.82
2023-05-11T17:54:52.569Z,22.84
2023-05-11T17:57:20.629Z,22.87
2023-05-11T17:59:48.625Z,22.84
2023-05-11T18:02:17.219Z,22.82
2023-05-11T18:04:45.277Z,22.80
2023-05-11T18:07:14.660Z,22.74
2023-05-11T18:09:42.729Z,22.70
2023-05-11T18:12:11.794Z,22.68
2023-05-11T18:14:39.770Z,22.68
2023-05-11T18:17:07.720Z,22.66
2023-05-11T18:19:35.731Z,22.65
2023-05-11T18:22:04.415Z,22.64
2023-05-11T18:24:33.736Z,22.62
2023-05-11T18:27:05.189Z,22.62
2023-05-11T18:29:33.372Z,22.62
2023-05-11T18:32:01.398Z,22.61
2023-05-11T18:34:29.389Z,22.58
2023-05-11T18:36:57.406Z,22.55
2023-05-11T18:39:25.337Z,22.51
2023-05-11T18:41:54.774Z,22.47
2023-05-11T18:44:22.790Z,22.44
2023-05-11T18:46:50.934Z,22.40
2023-05-11T18:49:19.015Z,22.37
2023-05-11T18:51:47.373Z,22.33
2023-05-11T18:54:15.326Z,22.29
2023-05-11T18:56:43.291Z,22.27
2023-05-11T18:59:12.629Z,22.24
2023-05-11T19:04:16.464Z,22.17
2023-05-11T19:06:44.387Z,22.15
2023-05-11T19:09:14.343Z,22.12
2023-05-11T19:11:43.040Z,22.09
2023-05-11T19:14:14.698Z,22.09
2023-05-11T19:16:42.822Z,22.07
2023-05-11T19:19:13.887Z,22.05
2023-05-11T19:21:43.348Z,22.04
2023-05-11T19:24:11.398Z,22.02
2023-05-11T19:26:39.364Z,21.99
2023-05-11T19:29:08.162Z,21.96
2023-05-11T19:31:37.569Z,21.95
2023-05-11T19:34:07.243Z,21.93
2023-05-11T19:36:35.368Z,21.91
2023-05-11T19:39:04.524Z,21.90
2023-05-11T19:41:33.242Z,21.89
2023-05-11T19:44:01.769Z,21.87
2023-05-11T19:46:29.955Z,21.86
2023-05-11T19:48:59.392Z,21.85
2023-05-11T19:51:30.206Z,21.83
2023-05-11T19:53:58.123Z,21.82
2023-05-11T19:56:29.412Z,21.80
2023-05-11T19:58:57.468Z,21.78
2023-05-11T20:01:25.473Z,21.78
2023-05-11T20:03:53.638Z,21.77
2023-05-11T20:06:23.376Z,21.75
2023-05-11T20:08:54.337Z,21.74
2023-05-11T20:11:22.606Z,21.73
2023-05-11T20:13:51.139Z,21.72
2023-05-11T20:16:19.220Z,21.71
2023-05-11T20:18:47.430Z,21.70
2023-05-11T20:21:15.750Z,21.69
2023-05-11T20:23:45.285Z,21.67
2023-05-11T20:26:13.670Z,21.67
2023-05-11T20:28:41.689Z,21.66
2023-05-11T20:31:11.072Z,21.65
2023-05-11T20:36:10.654Z,21.63
2023-05-11T20:38:38.618Z,21.62
2023-05-11T20:41:08.546Z,21.62
2023-05-11T20:43:36.592Z,21.62
2023-05-11T20:46:04.917Z,21.62
2023-05-11T20:48:40.401Z,21.62
2023-05-11T20:51:09.352Z,21.60
2023-05-11T20:53:37.343Z,21.58
2023-05-11T20:56:05.382Z,21.57
2023-05-11T20:58:34.793Z,21.56
2023-05-11T21:01:02.758Z,21.54
2023-05-11T21:03:30.877Z,21.53
2023-05-11T21:05:58.948Z,21.51
2023-05-11T21:08:26.989Z,21.49
2023-05-11T21:10:54.959Z,21.48
2023-05-11T21:13:22.976Z,21.47
2023-05-11T21:15:52.288Z,21.46
2023-05-11T21:18:20.310Z,21.45
2023-05-11T21:20:48.312Z,21.42
2023-05-11T21:23:16.279Z,21.40
2023-05-11T21:25:44.245Z,21.38
2023-05-11T21:28:12.235Z,21.36
2023-05-11T21:30:40.234Z,21.36
2023-05-11T21:33:09.707Z,21.35
2023-05-11T21:35:37.646Z,21.34
2023-05-11T21:38:05.631Z,21.33
2023-05-11T21:40:33.549Z,21.31
2023-05-11T21:43:01.476Z,21.31
2023-05-11T21:45:29.873Z,21.29
2023-05-11T21:48:01.139Z,21.27
2023-05-11T21:50:30.871Z,21.27
2023-05-11T21:52:59.168Z,21.26
2023-05-11T21:55:27.123Z,21.25
2023-05-11T21:57:55.072Z,21.23
2023-05-11T22:00:23.740Z,21.21
2023-05-11T22:02:51.888Z,21.21
2023-05-11T22:05:20.085Z,21.20
2023-05-11T22:07:49.439Z,21.19
2023-05-11T22:10:18.820Z,21.18
2023-05-11T22:12:47.088Z,21.17
2023-05-11T22:15:15.004Z,21.16
2023-05-11T22:17:42.997Z,21.14
2023-05-11T22:20:11.372Z,21.14
2023-05-11T22:22:39.723Z,21.15
2023-05-11T22:25:10.124Z,21.16
2023-05-11T22:27:38.147Z,21.16
2023-05-11T22:30:07.524Z,21.16
2023-05-11T22:32:36.097Z,21.15
2023-05-11T22:35:04.141Z,21.15
2023-05-11T22:37:32.721Z,21.15
2023-05-11T22:40:01.151Z,21.15
2023-05-11T22:42:32.848Z,21.15
2023-05-11T22:45:00.784Z,21.13
2023-05-11T22:47:28.784Z,21.13
2023-05-11T22:49:56.907Z,21.13
2023-05-11T22:52:24.823Z,21.11
2023-05-11T22:54:54.660Z,21.12
2023-05-11T22:57:24.145Z,21.11
2023-05-11T22:59:53.565Z,21.12
2023-05-11T23:02:23.076Z,21.12
2023-05-11T23:04:52.006Z,21.13
2023-05-11T23:07:20.020Z,21.15
2023-05-11T23:09:49.786Z,21.12
2023-05-11T23:12:18.327Z,21.12
2023-05-11T23:14:46.230Z,21.13
2023-05-11T23:17:15.675Z,21.11
2023-05-11T23:19:43.748Z,21.11
2023-05-11T23:22:11.674Z,21.11
2023-05-11T23:24:39.592Z,21.09
2023-05-11T23:27:07.572Z,21.07
2023-05-11T23:29:35.830Z,21.06
2023-05-11T23:32:04.317Z,21.03
2023-05-11T23:34:33.778Z,21.03
2023-05-11T23:37:01.819Z,21.01
2023-05-11T23:39:29.800Z,21.00
2023-05-11T23:41:57.721Z,20.99
2023-05-11T23:44:25.883Z,21.00
2023-05-11T23:46:53.939Z,20.98
2023-05-11T23:49:22.526Z,20.98
2023-05-11T23:51:52.515Z,20.96
2023-05-11T23:54:20.524Z,20.95
2023-05-11T23:56:48.460Z,20.95
2023-05-11T23:59:16.433Z,20.98
